TGW333 YBBN-YSSY
Flight info
| Callsign | TGW333 |
|---|---|
| Flight time | N/A |
| Altitude | 38000 |
| Route | SANEG2/01R SANEG H91 IGDAM H652 TESAT DCT |
| Aircraft | A20N/M-SDFIRWY/LB1 |
Departure
| Time | 2026-05-04 05:57 |
|---|---|
| Airport | Brisbane International Airport (YBBN) |
Arrival
| Time | N/A |
|---|---|
| Airport | Sydney Kingsford Smith International Airport (YSSY) |
| Time | Latitude | Longitude | Altitude | Speed | Heading |
|---|---|---|---|---|---|
| 2026-05-04 05:28 | -27.38876 | 153.11917 | 17 ft | 0 kts | 9° |
| 2026-05-04 05:47 | -27.38918 | 153.11908 | 18 ft | 2 kts | 32° |
| 2026-05-04 05:47 | -27.38930 | 153.11895 | 17 ft | 2 kts | 69° |
| 2026-05-04 05:47 | -27.38932 | 153.11881 | 17 ft | 2 kts | 121° |
| 2026-05-04 05:48 | -27.38924 | 153.11868 | 20 ft | 2 kts | 120° |
| 2026-05-04 05:48 | -27.38923 | 153.11866 | 19 ft | 2 kts | 117° |
| 2026-05-04 05:48 | -27.38924 | 153.11869 | 20 ft | 0 kts | 116° |
| 2026-05-04 05:52 | -27.38927 | 153.11876 | 17 ft | 2 kts | 116° |
| 2026-05-04 05:52 | -27.38947 | 153.11923 | 19 ft | 9 kts | 116° |
| 2026-05-04 05:52 | -27.38978 | 153.11989 | 17 ft | 9 kts | 119° |
| 2026-05-04 05:52 | -27.39013 | 153.12045 | 17 ft | 9 kts | 120° |
| 2026-05-04 05:53 | -27.39044 | 153.12108 | 18 ft | 9 kts | 128° |
| 2026-05-04 05:54 | -27.39603 | 153.11981 | 18 ft | 21 kts | 207° |
| 2026-05-04 05:55 | -27.39735 | 153.11906 | 18 ft | 21 kts | 207° |
| 2026-05-04 05:55 | -27.39862 | 153.11834 | 18 ft | 20 kts | 206° |
| 2026-05-04 05:55 | -27.39986 | 153.11763 | 19 ft | 20 kts | 207° |
| 2026-05-04 05:55 | -27.40106 | 153.11695 | 18 ft | 18 kts | 207° |
| 2026-05-04 05:56 | -27.40200 | 153.11641 | 18 ft | 15 kts | 206° |
| 2026-05-04 05:56 | -27.40285 | 153.11618 | 18 ft | 13 kts | 156° |
| 2026-05-04 05:56 | -27.40324 | 153.11727 | 19 ft | 19 kts | 88° |
| 2026-05-04 05:56 | -27.40190 | 153.11874 | 18 ft | 58 kts | 27° |
| 2026-05-04 05:57 | -27.39578 | 153.12222 | 20 ft | 135 kts | 27° |
| 2026-05-04 05:57 | -27.38572 | 153.12801 | 238 ft | 176 kts | 29° |
| 2026-05-04 05:57 | -27.37500 | 153.13477 | 1152 ft | 174 kts | 39° |
| 2026-05-04 05:57 | -27.36633 | 153.14401 | 2176 ft | 172 kts | 50° |
| 2026-05-04 05:58 | -27.35814 | 153.15470 | 2787 ft | 189 kts | 51° |
| 2026-05-04 05:58 | -27.34899 | 153.16639 | 3298 ft | 209 kts | 49° |
| 2026-05-04 05:58 | -27.33836 | 153.17902 | 3726 ft | 234 kts | 47° |
| 2026-05-04 05:58 | -27.32635 | 153.19251 | 4356 ft | 251 kts | 46° |
| 2026-05-04 05:59 | -27.31365 | 153.20639 | 5246 ft | 256 kts | 45° |
| 2026-05-04 05:59 | -27.30072 | 153.22040 | 6223 ft | 259 kts | 45° |
| 2026-05-04 05:59 | -27.29005 | 153.23638 | 7083 ft | 263 kts | 66° |
| 2026-05-04 05:59 | -27.28576 | 153.25640 | 7920 ft | 268 kts | 87° |
| 2026-05-04 06:00 | -27.28494 | 153.27751 | 8761 ft | 273 kts | 87° |
| 2026-05-04 06:00 | -27.28414 | 153.29905 | 9606 ft | 278 kts | 87° |
| 2026-05-04 06:00 | -27.28325 | 153.32099 | 10382 ft | 284 kts | 86° |
| 2026-05-04 06:00 | -27.28228 | 153.34346 | 11079 ft | 291 kts | 86° |
| 2026-05-04 06:01 | -27.28295 | 153.36634 | 11805 ft | 297 kts | 103° |
| 2026-05-04 06:01 | -27.29154 | 153.38752 | 12496 ft | 303 kts | 128° |
| 2026-05-04 06:03 | -27.43563 | 153.39218 | 16554 ft | 341 kts | 200° |
| 2026-05-04 06:03 | -27.45882 | 153.38392 | 16735 ft | 358 kts | 205° |
| 2026-05-04 06:05 | -27.58643 | 153.24435 | 20276 ft | 374 kts | 247° |
| 2026-05-04 06:05 | -27.61222 | 153.19285 | 21403 ft | 384 kts | 236° |
| 2026-05-04 06:05 | -27.63057 | 153.17118 | 21962 ft | 392 kts | 225° |
| 2026-05-04 06:06 | -27.65321 | 153.15335 | 22490 ft | 402 kts | 216° |
| 2026-05-04 06:06 | -27.67743 | 153.13744 | 23022 ft | 404 kts | 216° |
| 2026-05-04 06:06 | -27.70177 | 153.12136 | 23574 ft | 407 kts | 216° |
| 2026-05-04 06:06 | -27.72624 | 153.10512 | 24031 ft | 409 kts | 216° |
| 2026-05-04 06:07 | -27.75081 | 153.08878 | 24509 ft | 410 kts | 216° |
| 2026-05-04 06:07 | -27.77547 | 153.07235 | 24942 ft | 413 kts | 217° |
| 2026-05-04 06:07 | -27.80027 | 153.05581 | 25402 ft | 415 kts | 217° |
| 2026-05-04 06:07 | -27.82608 | 153.04068 | 25831 ft | 422 kts | 210° |
| 2026-05-04 06:08 | -27.85365 | 153.02838 | 26270 ft | 427 kts | 207° |
| 2026-05-04 06:08 | -27.88144 | 153.01633 | 26686 ft | 429 kts | 208° |
| 2026-05-04 06:08 | -27.90939 | 153.00411 | 27114 ft | 431 kts | 208° |
| 2026-05-04 06:08 | -27.93742 | 152.99181 | 27498 ft | 433 kts | 208° |
| 2026-05-04 06:09 | -27.96559 | 152.97946 | 27905 ft | 435 kts | 208° |
| 2026-05-04 06:09 | -27.99394 | 152.96703 | 28289 ft | 438 kts | 208° |
| 2026-05-04 06:11 | -28.19544 | 152.87805 | 30788 ft | 450 kts | 210° |
| 2026-05-04 06:11 | -28.22463 | 152.86506 | 31107 ft | 452 kts | 210° |
| 2026-05-04 06:13 | -28.42667 | 152.77508 | 34072 ft | 438 kts | 212° |
| 2026-05-04 06:14 | -28.59559 | 152.69941 | 35752 ft | 435 kts | 213° |
| 2026-05-04 06:14 | -28.62373 | 152.68679 | 35996 ft | 435 kts | 213° |
| 2026-05-04 06:15 | -28.65182 | 152.67418 | 36240 ft | 435 kts | 213° |
| 2026-05-04 06:15 | -28.67997 | 152.66154 | 36483 ft | 434 kts | 213° |
| 2026-05-04 06:15 | -28.70802 | 152.64893 | 36720 ft | 433 kts | 213° |
| 2026-05-04 06:15 | -28.73611 | 152.63630 | 36934 ft | 434 kts | 213° |
| 2026-05-04 06:16 | -28.76413 | 152.62369 | 37131 ft | 433 kts | 213° |
| 2026-05-04 06:16 | -28.79219 | 152.61105 | 37359 ft | 433 kts | 213° |
| 2026-05-04 06:16 | -28.82018 | 152.59844 | 37569 ft | 433 kts | 213° |
| 2026-05-04 06:16 | -28.84802 | 152.58551 | 37740 ft | 429 kts | 217° |
| 2026-05-04 06:17 | -28.87436 | 152.57039 | 37929 ft | 423 kts | 220° |
| 2026-05-04 06:17 | -28.90042 | 152.55478 | 38093 ft | 423 kts | 219° |
| 2026-05-04 06:17 | -28.95261 | 152.52380 | 38091 ft | 422 kts | 219° |
| 2026-05-04 06:18 | -29.00470 | 152.49283 | 38089 ft | 422 kts | 220° |
| 2026-05-04 06:20 | -29.21232 | 152.36886 | 38097 ft | 421 kts | 220° |
| 2026-05-04 06:21 | -29.34219 | 152.29103 | 38096 ft | 422 kts | 220° |
| 2026-05-04 06:22 | -29.39420 | 152.25977 | 38099 ft | 421 kts | 220° |
| 2026-05-04 06:25 | -29.68904 | 152.08395 | 38101 ft | 431 kts | 215° |